sensor_id;sensor_type;location;lat;lon;timestamp;pressure;altitude;pressure_sealevel;temperature;humidity
75359;BME280;64046;51.978;5.934;2023-01-19T00:01:12;99902.13;;;7.80;86.50
75359;BME280;64046;51.978;5.934;2023-01-19T00:03:41;99896.16;;;7.78;86.64
75359;BME280;64046;51.978;5.934;2023-01-19T00:06:10;99899.50;;;7.80;86.71
75359;BME280;64046;51.978;5.934;2023-01-19T00:08:40;99897.75;;;7.80;86.89
75359;BME280;64046;51.978;5.934;2023-01-19T00:11:11;99892.75;;;7.76;87.00
75359;BME280;64046;51.978;5.934;2023-01-19T00:13:43;99890.31;;;7.90;86.90
75359;BME280;64046;51.978;5.934;2023-01-19T00:16:16;99890.97;;;7.76;87.28
75359;BME280;64046;51.978;5.934;2023-01-19T00:18:46;99888.44;;;7.75;87.40
75359;BME280;64046;51.978;5.934;2023-01-19T00:21:16;99896.91;;;7.80;87.56
75359;BME280;64046;51.978;5.934;2023-01-19T00:23:46;99894.31;;;7.80;87.69
75359;BME280;64046;51.978;5.934;2023-01-19T00:26:18;99894.00;;;7.86;87.67
75359;BME280;64046;51.978;5.934;2023-01-19T00:28:50;99900.34;;;8.00;87.57
75359;BME280;64046;51.978;5.934;2023-01-19T00:31:19;99896.75;;;7.83;87.90
75359;BME280;64046;51.978;5.934;2023-01-19T00:33:48;99899.06;;;7.89;87.86
75359;BME280;64046;51.978;5.934;2023-01-19T00:36:18;99892.19;;;7.88;87.93
75359;BME280;64046;51.978;5.934;2023-01-19T00:38:47;99892.19;;;7.88;88.02
75359;BME280;64046;51.978;5.934;2023-01-19T00:41:16;99899.03;;;7.91;88.01
75359;BME280;64046;51.978;5.934;2023-01-19T00:44:08;99886.00;;;8.08;87.70
75359;BME280;64046;51.978;5.934;2023-01-19T00:46:35;99887.72;;;7.90;87.82
75359;BME280;64046;51.978;5.934;2023-01-19T00:49:04;99883.41;;;7.89;88.02
75359;BME280;64046;51.978;5.934;2023-01-19T00:51:34;99888.78;;;7.86;88.08
75359;BME280;64046;51.978;5.934;2023-01-19T00:54:03;99880.13;;;7.86;88.18
75359;BME280;64046;51.978;5.934;2023-01-19T00:56:35;99884.69;;;7.80;88.68
75359;BME280;64046;51.978;5.934;2023-01-19T00:59:04;99883.16;;;7.76;88.76
75359;BME280;64046;51.978;5.934;2023-01-19T01:01:36;99880.13;;;7.86;89.04
75359;BME280;64046;51.978;5.934;2023-01-19T01:04:06;99879.16;;;7.69;89.26
75359;BME280;64046;51.978;5.934;2023-01-19T01:06:37;99878.00;;;7.75;89.07
75359;BME280;64046;51.978;5.934;2023-01-19T01:09:06;99885.84;;;7.75;89.04
75359;BME280;64046;51.978;5.934;2023-01-19T01:11:37;99879.50;;;7.80;89.13
75359;BME280;64046;51.978;5.934;2023-01-19T01:14:07;99879.97;;;7.89;88.81
75359;BME280;64046;51.978;5.934;2023-01-19T01:16:40;99881.50;;;7.93;88.72
75359;BME280;64046;51.978;5.934;2023-01-19T01:19:09;99874.50;;;7.76;88.90
75359;BME280;64046;51.978;5.934;2023-01-19T01:21:38;99877.47;;;7.68;89.26
75359;BME280;64046;51.978;5.934;2023-01-19T01:24:09;99875.34;;;7.76;89.51
75359;BME280;64046;51.978;5.934;2023-01-19T01:26:39;99871.78;;;7.60;89.66
75359;BME280;64046;51.978;5.934;2023-01-19T01:29:08;99875.38;;;7.57;89.96
75359;BME280;64046;51.978;5.934;2023-01-19T01:31:40;99875.34;;;7.76;89.68
75359;BME280;64046;51.978;5.934;2023-01-19T01:34:09;99872.75;;;7.57;89.99
75359;BME280;64046;51.978;5.934;2023-01-19T01:36:38;99865.25;;;7.51;90.25
75359;BME280;64046;51.978;5.934;2023-01-19T01:39:07;99866.22;;;7.49;90.32
75359;BME280;64046;51.978;5.934;2023-01-19T01:41:36;99859.53;;;7.43;90.71
75359;BME280;64046;51.978;5.934;2023-01-19T01:47:07;99867.81;;;7.70;90.52
75359;BME280;64046;51.978;5.934;2023-01-19T01:49:36;99865.31;;;7.50;91.14
75359;BME280;64046;51.978;5.934;2023-01-19T01:52:06;99876.16;;;7.59;91.05
75359;BME280;64046;51.978;5.934;2023-01-19T01:54:35;99864.94;;;7.57;90.98
75359;BME280;64046;51.978;5.934;2023-01-19T01:57:06;99864.97;;;7.75;91.21
75359;BME280;64046;51.978;5.934;2023-01-19T01:59:44;99856.47;;;7.71;90.95
75359;BME280;64046;51.978;5.934;2023-01-19T02:02:18;99861.38;;;7.77;90.85
75359;BME280;64046;51.978;5.934;2023-01-19T02:05:05;99865.91;;;7.74;90.86
75359;BME280;64046;51.978;5.934;2023-01-19T02:07:43;99873.75;;;7.74;90.73
75359;BME280;64046;51.978;5.934;2023-01-19T02:10:26;99874.94;;;7.48;91.21
75359;BME280;64046;51.978;5.934;2023-01-19T02:13:08;99873.56;;;7.40;91.24
75359;BME280;64046;51.978;5.934;2023-01-19T02:15:48;99873.47;;;7.42;91.18
75359;BME280;64046;51.978;5.934;2023-01-19T02:18:22;99875.03;;;7.46;91.11
75359;BME280;64046;51.978;5.934;2023-01-19T02:21:05;99874.63;;;7.55;90.63
75359;BME280;64046;51.978;5.934;2023-01-19T02:23:44;99879.97;;;7.52;90.70
75359;BME280;64046;51.978;5.934;2023-01-19T02:26:16;99881.28;;;7.42;91.01
75359;BME280;64046;51.978;5.934;2023-01-19T02:28:50;99879.63;;;7.41;91.04
75359;BME280;64046;51.978;5.934;2023-01-19T02:31:22;99883.91;;;7.23;91.34
75359;BME280;64046;51.978;5.934;2023-01-19T02:33:53;99883.16;;;7.21;91.22
75359;BME280;64046;51.978;5.934;2023-01-19T02:36:26;99885.16;;;7.33;90.65
75359;BME280;64046;51.978;5.934;2023-01-19T02:39:01;99887.41;;;7.22;90.66
75359;BME280;64046;51.978;5.934;2023-01-19T02:41:33;99896.78;;;7.07;91.18
75359;BME280;64046;51.978;5.934;2023-01-19T02:44:07;99900.94;;;6.92;91.79
75359;BME280;64046;51.978;5.934;2023-01-19T02:46:37;99901.06;;;6.68;92.30
75359;BME280;64046;51.978;5.934;2023-01-19T02:49:07;99906.09;;;6.52;92.98
75359;BME280;64046;51.978;5.934;2023-01-19T02:51:36;99904.38;;;6.51;93.41
75359;BME280;64046;51.978;5.934;2023-01-19T02:54:23;99897.00;;;6.82;91.81
75359;BME280;64046;51.978;5.934;2023-01-19T02:57:16;99891.66;;;6.85;91.74
75359;BME280;64046;51.978;5.934;2023-01-19T02:59:56;99893.78;;;6.77;92.36
75359;BME280;64046;51.978;5.934;2023-01-19T03:02:32;99895.41;;;6.79;92.54
75359;BME280;64046;51.978;5.934;2023-01-19T03:05:18;99900.28;;;6.87;91.87
75359;BME280;64046;51.978;5.934;2023-01-19T03:07:55;99908.53;;;6.76;92.75
75359;BME280;64046;51.978;5.934;2023-01-19T03:10:37;99911.28;;;6.73;92.74
75359;BME280;64046;51.978;5.934;2023-01-19T03:13:13;99909.38;;;6.56;94.41
75359;BME280;64046;51.978;5.934;2023-01-19T03:15:47;99912.25;;;6.50;94.60
75359;BME280;64046;51.978;5.934;2023-01-19T03:18:19;99914.25;;;6.43;95.13
75359;BME280;64046;51.978;5.934;2023-01-19T03:20:53;99914.47;;;6.38;95.26
75359;BME280;64046;51.978;5.934;2023-01-19T03:23:25;99920.19;;;6.47;95.16
75359;BME280;64046;51.978;5.934;2023-01-19T03:25:59;99921.03;;;6.47;94.88
75359;BME280;64046;51.978;5.934;2023-01-19T03:28:31;99930.97;;;6.37;95.18
75359;BME280;64046;51.978;5.934;2023-01-19T03:31:05;99928.00;;;6.47;94.88
75359;BME280;64046;51.978;5.934;2023-01-19T03:33:39;99940.06;;;6.49;94.85
75359;BME280;64046;51.978;5.934;2023-01-19T03:36:14;99938.34;;;6.48;94.88
75359;BME280;64046;51.978;5.934;2023-01-19T03:38:48;99935.22;;;6.40;95.35
75359;BME280;64046;51.978;5.934;2023-01-19T03:41:23;99937.59;;;6.46;95.00
75359;BME280;64046;51.978;5.934;2023-01-19T03:43:54;99929.88;;;6.43;95.62
75359;BME280;64046;51.978;5.934;2023-01-19T03:46:23;99934.38;;;6.39;95.17
75359;BME280;64046;51.978;5.934;2023-01-19T03:48:54;99941.28;;;6.40;95.39
75359;BME280;64046;51.978;5.934;2023-01-19T03:51:25;99943.69;;;6.45;95.45
75359;BME280;64046;51.978;5.934;2023-01-19T03:53:54;99945.56;;;6.41;95.65
75359;BME280;64046;51.978;5.934;2023-01-19T03:56:26;99945.75;;;6.57;95.51
75359;BME280;64046;51.978;5.934;2023-01-19T03:58:55;99948.09;;;6.43;95.88
75359;BME280;64046;51.978;5.934;2023-01-19T04:01:24;99946.16;;;6.48;96.10
75359;BME280;64046;51.978;5.934;2023-01-19T04:03:54;99946.03;;;6.51;96.15
75359;BME280;64046;51.978;5.934;2023-01-19T04:06:23;99945.91;;;6.54;96.27
75359;BME280;64046;51.978;5.934;2023-01-19T04:08:53;99949.22;;;6.58;96.10
75359;BME280;64046;51.978;5.934;2023-01-19T04:11:22;99956.06;;;6.61;96.55
75359;BME280;64046;51.978;5.934;2023-01-19T04:13:54;99959.44;;;6.83;96.28
75359;BME280;64046;51.978;5.934;2023-01-19T04:16:23;99954.25;;;6.63;96.70
75359;BME280;64046;51.978;5.934;2023-01-19T04:18:52;99957.38;;;6.71;96.76
75359;BME280;64046;51.978;5.934;2023-01-19T04:21:21;99947.59;;;6.76;96.89
75359;BME280;64046;51.978;5.934;2023-01-19T04:23:50;99951.75;;;6.80;96.56
75359;BME280;64046;51.978;5.934;2023-01-19T04:26:20;99954.44;;;6.79;96.65
75359;BME280;64046;51.978;5.934;2023-01-19T04:28:49;99956.28;;;6.77;97.03
75359;BME280;64046;51.978;5.934;2023-01-19T04:31:21;99951.09;;;6.96;96.71
75359;BME280;64046;51.978;5.934;2023-01-19T04:33:50;99957.75;;;6.82;96.79
75359;BME280;64046;51.978;5.934;2023-01-19T04:36:19;99961.41;;;6.78;96.68
75359;BME280;64046;51.978;5.934;2023-01-19T04:38:48;99975.47;;;6.74;96.93
75359;BME280;64046;51.978;5.934;2023-01-19T04:41:17;99973.13;;;6.68;97.23
75359;BME280;64046;51.978;5.934;2023-01-19T04:43:46;99978.34;;;6.68;97.28
75359;BME280;64046;51.978;5.934;2023-01-19T04:46:15;99981.78;;;6.68;97.48
75359;BME280;64046;51.978;5.934;2023-01-19T04:48:47;99978.13;;;6.93;97.07
75359;BME280;64046;51.978;5.934;2023-01-19T04:51:16;99980.59;;;6.75;97.34
75359;BME280;64046;51.978;5.934;2023-01-19T04:53:45;99983.13;;;6.77;97.34
75359;BME280;64046;51.978;5.934;2023-01-19T04:56:15;99981.19;;;6.82;97.22
75359;BME280;64046;51.978;5.934;2023-01-19T04:58:44;99981.00;;;6.87;96.88
75359;BME280;64046;51.978;5.934;2023-01-19T05:01:13;99982.69;;;6.88;96.82
75359;BME280;64046;51.978;5.934;2023-01-19T05:03:42;99981.66;;;6.92;96.86
75359;BME280;64046;51.978;5.934;2023-01-19T05:06:14;99987.88;;;7.08;96.29
75359;BME280;64046;51.978;5.934;2023-01-19T05:08:43;99992.25;;;6.87;96.80
75359;BME280;64046;51.978;5.934;2023-01-19T05:11:12;99988.81;;;6.87;96.93
75359;BME280;64046;51.978;5.934;2023-01-19T05:13:41;99994.69;;;6.92;96.73
75359;BME280;64046;51.978;5.934;2023-01-19T05:16:10;99988.59;;;6.91;96.59
75359;BME280;64046;51.978;5.934;2023-01-19T05:18:40;99992.25;;;6.87;96.76
75359;BME280;64046;51.978;5.934;2023-01-19T05:21:09;100000.19;;;6.84;97.11
75359;BME280;64046;51.978;5.934;2023-01-19T05:23:41;100001.94;;;7.04;96.89
75359;BME280;64046;51.978;5.934;2023-01-19T05:26:10;99992.25;;;6.87;97.25
75359;BME280;64046;51.978;5.934;2023-01-19T05:28:39;100001.75;;;6.88;96.88
75359;BME280;64046;51.978;5.934;2023-01-19T05:31:08;99994.91;;;6.86;97.19
75359;BME280;64046;51.978;5.934;2023-01-19T05:33:37;100001.00;;;6.86;97.38
75359;BME280;64046;51.978;5.934;2023-01-19T05:36:08;100008.34;;;6.97;97.03
75359;BME280;64046;51.978;5.934;2023-01-19T05:38:40;100008.47;;;7.15;96.83
75359;BME280;64046;51.978;5.934;2023-01-19T05:41:09;100010.81;;;7.00;96.88
75359;BME280;64046;51.978;5.934;2023-01-19T05:43:39;100013.53;;;6.97;96.60
75359;BME280;64046;51.978;5.934;2023-01-19T05:46:08;100014.38;;;6.98;96.88
75359;BME280;64046;51.978;5.934;2023-01-19T05:48:37;100031.78;;;6.97;96.79
75359;BME280;64046;51.978;5.934;2023-01-19T05:51:06;100032.69;;;6.96;96.97
75359;BME280;64046;51.978;5.934;2023-01-19T05:53:36;100037.00;;;6.97;96.74
75359;BME280;64046;51.978;5.934;2023-01-19T05:56:08;100043.13;;;7.17;96.49
75359;BME280;64046;51.978;5.934;2023-01-19T05:58:38;100032.69;;;6.96;96.88
75359;BME280;64046;51.978;5.934;2023-01-19T06:01:08;100032.25;;;7.07;97.14
75359;BME280;64046;51.978;5.934;2023-01-19T06:03:38;100039.59;;;6.97;96.98
75359;BME280;64046;51.978;5.934;2023-01-19T06:06:07;100037.78;;;6.99;96.76
75359;BME280;64046;51.978;5.934;2023-01-19T06:08:37;100037.72;;;7.01;96.91
75359;BME280;64046;51.978;5.934;2023-01-19T06:11:09;100036.72;;;7.24;96.50
75359;BME280;64046;51.978;5.934;2023-01-19T06:13:38;100042.00;;;7.02;96.79
75359;BME280;64046;51.978;5.934;2023-01-19T06:16:08;100048.13;;;7.01;97.03
75359;BME280;64046;51.978;5.934;2023-01-19T06:18:37;100048.97;;;7.01;96.90
75359;BME280;64046;51.978;5.934;2023-01-19T06:21:07;100053.75;;;7.12;96.94
75359;BME280;64046;51.978;5.934;2023-01-19T06:23:39;100053.16;;;7.05;97.14
75359;BME280;64046;51.978;5.934;2023-01-19T06:26:11;100059.22;;;7.26;96.67
75359;BME280;64046;51.978;5.934;2023-01-19T06:28:40;100060.06;;;7.06;97.13
75359;BME280;64046;51.978;5.934;2023-01-19T06:31:09;100073.78;;;7.10;97.45
75359;BME280;64046;51.978;5.934;2023-01-19T06:33:39;100070.97;;;7.15;97.25
75359;BME280;64046;51.978;5.934;2023-01-19T06:36:08;100066.84;;;7.31;96.70
75359;BME280;64046;51.978;5.934;2023-01-19T06:38:37;100071.31;;;7.27;96.59
75359;BME280;64046;51.978;5.934;2023-01-19T06:41:07;100076.38;;;7.31;96.77
75359;BME280;64046;51.978;5.934;2023-01-19T06:43:38;100083.25;;;7.54;96.21
75359;BME280;64046;51.978;5.934;2023-01-19T06:46:08;100084.88;;;7.36;96.61
75359;BME280;64046;51.978;5.934;2023-01-19T06:48:38;100088.13;;;7.41;96.60
75359;BME280;64046;51.978;5.934;2023-01-19T06:51:07;100093.34;;;7.41;96.70
75359;BME280;64046;51.978;5.934;2023-01-19T06:53:36;100092.63;;;7.37;96.88
75359;BME280;64046;51.978;5.934;2023-01-19T06:56:07;100099.91;;;7.50;97.26
75359;BME280;64046;51.978;5.934;2023-01-19T06:58:39;100111.56;;;7.61;96.79
75359;BME280;64046;51.978;5.934;2023-01-19T07:01:08;100114.91;;;7.44;97.25
75359;BME280;64046;51.978;5.934;2023-01-19T07:03:38;100127.22;;;7.41;97.12
75359;BME280;64046;51.978;5.934;2023-01-19T07:06:07;100133.47;;;7.37;97.21
75359;BME280;64046;51.978;5.934;2023-01-19T07:08:37;100141.03;;;7.43;97.36
75359;BME280;64046;51.978;5.934;2023-01-19T07:11:09;100133.09;;;7.46;97.28
75359;BME280;64046;51.978;5.934;2023-01-19T07:13:41;100143.19;;;7.54;97.04
75359;BME280;64046;51.978;5.934;2023-01-19T07:16:16;100152.56;;;7.37;97.10
75359;BME280;64046;51.978;5.934;2023-01-19T07:18:47;100154.25;;;7.38;97.16
75359;BME280;64046;51.978;5.934;2023-01-19T07:21:17;100168.41;;;7.33;97.25
75359;BME280;64046;51.978;5.934;2023-01-19T07:23:47;100167.56;;;7.32;97.29
75359;BME280;64046;51.978;5.934;2023-01-19T07:26:16;100168.72;;;7.25;97.41
75359;BME280;64046;51.978;5.934;2023-01-19T07:28:49;100171.66;;;7.38;97.53
75359;BME280;64046;51.978;5.934;2023-01-19T07:31:18;100175.53;;;7.27;97.70
75359;BME280;64046;51.978;5.934;2023-01-19T07:33:48;100182.19;;;7.35;96.95
75359;BME280;64046;51.978;5.934;2023-01-19T07:36:17;100187.28;;;7.38;97.01
75359;BME280;64046;51.978;5.934;2023-01-19T07:38:46;100196.09;;;7.35;97.27
75359;BME280;64046;51.978;5.934;2023-01-19T07:41:15;100190.22;;;7.30;97.76
75359;BME280;64046;51.978;5.934;2023-01-19T07:43:44;100200.00;;;7.25;98.03
75359;BME280;64046;51.978;5.934;2023-01-19T07:46:18;100203.22;;;7.52;97.72
75359;BME280;64046;51.978;5.934;2023-01-19T07:48:48;100213.06;;;7.45;97.47
75359;BME280;64046;51.978;5.934;2023-01-19T07:51:17;100208.53;;;7.49;96.77
75359;BME280;64046;51.978;5.934;2023-01-19T07:53:48;100211.56;;;7.60;96.67
75359;BME280;64046;51.978;5.934;2023-01-19T07:56:17;100221.97;;;7.40;97.07
75359;BME280;64046;51.978;5.934;2023-01-19T07:58:47;100225.59;;;7.36;97.07
75359;BME280;64046;51.978;5.934;2023-01-19T08:01:20;100221.47;;;7.52;97.06
75359;BME280;64046;51.978;5.934;2023-01-19T08:03:49;100237.00;;;7.33;97.11
75359;BME280;64046;51.978;5.934;2023-01-19T08:06:20;100238.38;;;7.42;97.13
75359;BME280;64046;51.978;5.934;2023-01-19T08:08:50;100255.44;;;7.28;97.27
75359;BME280;64046;51.978;5.934;2023-01-19T08:11:19;100250.34;;;7.25;97.11
75359;BME280;64046;51.978;5.934;2023-01-19T08:13:48;100252.88;;;7.27;97.30
75359;BME280;64046;51.978;5.934;2023-01-19T08:16:20;100254.63;;;7.49;96.85
75359;BME280;64046;51.978;5.934;2023-01-19T08:18:49;100261.47;;;7.29;97.20
75359;BME280;64046;51.978;5.934;2023-01-19T08:21:18;100254.72;;;7.25;97.72
75359;BME280;64046;51.978;5.934;2023-01-19T08:23:51;100263.34;;;7.48;97.52
75359;BME280;64046;51.978;5.934;2023-01-19T08:26:25;100263.41;;;7.46;97.36
75359;BME280;64046;51.978;5.934;2023-01-19T08:28:57;100260.25;;;7.38;98.05
75359;BME280;64046;51.978;5.934;2023-01-19T08:31:30;100273.72;;;7.49;97.65
75359;BME280;64046;51.978;5.934;2023-01-19T08:33:59;100284.03;;;7.30;97.70
75359;BME280;64046;51.978;5.934;2023-01-19T08:36:28;100295.47;;;7.26;98.07
75359;BME280;64046;51.978;5.934;2023-01-19T08:38:57;100295.41;;;7.27;98.32
75359;BME280;64046;51.978;5.934;2023-01-19T08:41:27;100292.03;;;7.25;98.36
75359;BME280;64046;51.978;5.934;2023-01-19T08:43:56;100289.31;;;7.28;98.16
75359;BME280;64046;51.978;5.934;2023-01-19T08:46:25;100299.47;;;7.35;98.11
75359;BME280;64046;51.978;5.934;2023-01-19T08:48:57;100309.19;;;7.53;97.96
75359;BME280;64046;51.978;5.934;2023-01-19T08:51:26;100311.44;;;7.40;97.76
75359;BME280;64046;51.978;5.934;2023-01-19T08:53:55;100298.88;;;7.50;97.82
75359;BME280;64046;51.978;5.934;2023-01-19T08:56:24;100300.03;;;7.65;97.38
75359;BME280;64046;51.978;5.934;2023-01-19T08:58:54;100301.50;;;7.72;97.04
75359;BME280;64046;51.978;5.934;2023-01-19T09:01:23;100304.53;;;7.82;96.82
75359;BME280;64046;51.978;5.934;2023-01-19T09:03:52;100308.66;;;7.88;96.57
75359;BME280;64046;51.978;5.934;2023-01-19T09:06:24;100310.34;;;8.11;95.84
75359;BME280;64046;51.978;5.934;2023-01-19T09:08:53;100317.09;;;7.94;96.14
75359;BME280;64046;51.978;5.934;2023-01-19T09:11:22;100304.66;;;8.01;96.10
75359;BME280;64046;51.978;5.934;2023-01-19T09:13:52;100318.34;;;8.06;95.76
75359;BME280;64046;51.978;5.934;2023-01-19T09:16:21;100323.38;;;8.11;95.69
75359;BME280;64046;51.978;5.934;2023-01-19T09:18:52;100323.25;;;8.14;95.19
75359;BME280;64046;51.978;5.934;2023-01-19T09:21:23;100323.81;;;8.21;95.04
75359;BME280;64046;51.978;5.934;2023-01-19T09:23:53;100323.56;;;8.27;95.01
75359;BME280;64046;51.978;5.934;2023-01-19T09:26:22;100327.03;;;8.27;94.89
75359;BME280;64046;51.978;5.934;2023-01-19T09:28:52;100333.16;;;8.26;94.81
75359;BME280;64046;51.978;5.934;2023-01-19T09:31:21;100338.56;;;8.22;95.11
75359;BME280;64046;51.978;5.934;2023-01-19T09:33:50;100347.50;;;8.16;95.60
75359;BME280;64046;51.978;5.934;2023-01-19T09:36:19;100333.47;;;8.19;95.72
75359;BME280;64046;51.978;5.934;2023-01-19T09:38:51;100336.22;;;8.36;95.50
75359;BME280;64046;51.978;5.934;2023-01-19T09:41:21;100334.72;;;8.30;95.87
75359;BME280;64046;51.978;5.934;2023-01-19T09:43:54;100339.50;;;8.41;95.35
75359;BME280;64046;51.978;5.934;2023-01-19T09:46:29;100333.97;;;8.49;94.68
75359;BME280;64046;51.978;5.934;2023-01-19T09:49:03;100341.94;;;8.46;94.69
75359;BME280;64046;51.978;5.934;2023-01-19T09:51:37;100344.66;;;8.63;94.38
75359;BME280;64046;51.978;5.934;2023-01-19T09:54:12;100342.28;;;8.78;93.39
75359;BME280;64046;51.978;5.934;2023-01-19T09:56:43;100348.75;;;8.69;93.59
75359;BME280;64046;51.978;5.934;2023-01-19T09:59:19;100344.66;;;8.82;93.11
75359;BME280;64046;51.978;5.934;2023-01-19T10:02:04;100355.31;;;8.98;92.09
75359;BME280;64046;51.978;5.934;2023-01-19T10:04:38;100357.84;;;9.00;92.54
75359;BME280;64046;51.978;5.934;2023-01-19T10:07:15;100356.81;;;9.04;92.20
75359;BME280;64046;51.978;5.934;2023-01-19T10:09:59;100350.31;;;9.13;92.05
75359;BME280;64046;51.978;5.934;2023-01-19T10:12:38;100356.16;;;9.18;91.81
75359;BME280;64046;51.978;5.934;2023-01-19T10:15:18;100356.16;;;9.18;91.14
75359;BME280;64046;51.978;5.934;2023-01-19T10:17:58;100363.31;;;9.14;91.17
75359;BME280;64046;51.978;5.934;2023-01-19T10:20:35;100360.63;;;9.16;90.79
75359;BME280;64046;51.978;5.934;2023-01-19T10:23:19;100364.34;;;9.29;89.66
75359;BME280;64046;51.978;5.934;2023-01-19T10:25:53;100368.97;;;9.24;89.73
75359;BME280;64046;51.978;5.934;2023-01-19T10:28:24;100375.84;;;9.25;90.05
75359;BME280;64046;51.978;5.934;2023-01-19T10:30:54;100372.81;;;9.15;89.37
75359;BME280;64046;51.978;5.934;2023-01-19T10:33:23;100379.50;;;9.23;88.86
75359;BME280;64046;51.978;5.934;2023-01-19T10:35:52;100375.72;;;9.28;88.79
75359;BME280;64046;51.978;5.934;2023-01-19T10:38:22;100375.69;;;9.30;88.09
75359;BME280;64046;51.978;5.934;2023-01-19T10:41:00;100384.84;;;9.58;87.03
75359;BME280;64046;51.978;5.934;2023-01-19T10:43:36;100380.38;;;9.60;86.79
75359;BME280;64046;51.978;5.934;2023-01-19T10:46:11;100386.88;;;9.51;86.92
75359;BME280;64046;51.978;5.934;2023-01-19T10:48:47;100377.56;;;9.64;85.90
75359;BME280;64046;51.978;5.934;2023-01-19T10:51:17;100375.34;;;9.55;86.36
75359;BME280;64046;51.978;5.934;2023-01-19T10:53:58;100375.03;;;9.80;85.45
75359;BME280;64046;51.978;5.934;2023-01-19T10:56:35;100376.94;;;9.77;85.93
75359;BME280;64046;51.978;5.934;2023-01-19T10:59:05;100382.97;;;9.60;86.94
75359;BME280;64046;51.978;5.934;2023-01-19T11:01:34;100383.44;;;9.50;87.15
75359;BME280;64046;51.978;5.934;2023-01-19T11:04:20;100382.41;;;9.72;85.97
75359;BME280;64046;51.978;5.934;2023-01-19T11:06:50;100391.22;;;9.33;87.67
75359;BME280;64046;51.978;5.934;2023-01-19T11:09:20;100392.25;;;9.48;87.66
75359;BME280;64046;51.978;5.934;2023-01-19T11:11:52;100388.09;;;9.63;86.91
75359;BME280;64046;51.978;5.934;2023-01-19T11:14:23;100392.75;;;9.56;86.75
75359;BME280;64046;51.978;5.934;2023-01-19T11:16:54;100399.97;;;9.51;86.89
75359;BME280;64046;51.978;5.934;2023-01-19T11:19:26;100405.03;;;9.54;86.49
75359;BME280;64046;51.978;5.934;2023-01-19T11:22:14;100397.28;;;9.72;85.28
75359;BME280;64046;51.978;5.934;2023-01-19T11:24:48;100399.78;;;9.56;86.05
75359;BME280;64046;51.978;5.934;2023-01-19T11:27:20;100404.63;;;9.63;85.56
75359;BME280;64046;51.978;5.934;2023-01-19T11:29:57;100401.78;;;9.68;85.52
75359;BME280;64046;51.978;5.934;2023-01-19T11:32:30;100400.41;;;9.42;86.12
75359;BME280;64046;51.978;5.934;2023-01-19T11:38:17;100403.63;;;9.66;84.20
75359;BME280;64046;51.978;5.934;2023-01-19T11:40:51;100400.75;;;9.53;85.03
75359;BME280;64046;51.978;5.934;2023-01-19T11:43:27;100399.47;;;9.62;84.49
75359;BME280;64046;51.978;5.934;2023-01-19T11:45:57;100401.72;;;9.50;84.73
75359;BME280;64046;51.978;5.934;2023-01-19T11:48:31;100397.63;;;9.64;84.44
75359;BME280;64046;51.978;5.934;2023-01-19T11:51:03;100402.63;;;9.68;84.20
75359;BME280;64046;51.978;5.934;2023-01-19T11:53:34;100395.41;;;9.74;84.51
75359;BME280;64046;51.978;5.934;2023-01-19T11:56:06;100402.63;;;9.87;84.16
75359;BME280;64046;51.978;5.934;2023-01-19T11:58:41;100402.47;;;9.91;83.68
75359;BME280;64046;51.978;5.934;2023-01-19T12:01:16;100398.78;;;9.95;84.13
75359;BME280;64046;51.978;5.934;2023-01-19T12:03:54;100402.94;;;9.99;84.41
75359;BME280;64046;51.978;5.934;2023-01-19T12:06:29;100404.25;;;10.08;84.62
75359;BME280;64046;51.978;5.934;2023-01-19T12:09:02;100401.09;;;10.18;84.40
75359;BME280;64046;51.978;5.934;2023-01-19T12:11:36;100399.19;;;10.22;84.12
75359;BME280;64046;51.978;5.934;2023-01-19T12:14:16;100396.25;;;10.28;83.08
75359;BME280;64046;51.978;5.934;2023-01-19T12:16:49;100398.13;;;10.09;84.08
75359;BME280;64046;51.978;5.934;2023-01-19T12:19:23;100391.84;;;10.11;84.00
75359;BME280;64046;51.978;5.934;2023-01-19T12:21:55;100390.53;;;10.02;84.22
75359;BME280;64046;51.978;5.934;2023-01-19T12:24:28;100394.03;;;10.20;83.63
75359;BME280;64046;51.978;5.934;2023-01-19T12:27:01;100392.19;;;10.22;83.73
75359;BME280;64046;51.978;5.934;2023-01-19T12:29:36;100386.56;;;10.30;83.18
75359;BME280;64046;51.978;5.934;2023-01-19T12:32:28;100395.44;;;10.45;81.82
75359;BME280;64046;51.978;5.934;2023-01-19T12:35:00;100401.09;;;10.01;83.02
75359;BME280;64046;51.978;5.934;2023-01-19T12:37:37;100398.03;;;10.28;81.88
75359;BME280;64046;51.978;5.934;2023-01-19T12:40:22;100405.19;;;10.24;81.54
75359;BME280;64046;51.978;5.934;2023-01-19T12:42:58;100404.41;;;10.04;82.07
75359;BME280;64046;51.978;5.934;2023-01-19T12:45:33;100402.56;;;10.07;82.23
75359;BME280;64046;51.978;5.934;2023-01-19T12:48:05;100400.47;;;9.96;82.17
75359;BME280;64046;51.978;5.934;2023-01-19T12:50:48;100399.78;;;9.92;82.08
75359;BME280;64046;51.978;5.934;2023-01-19T12:53:19;100409.19;;;10.14;81.54
75359;BME280;64046;51.978;5.934;2023-01-19T12:55:57;100385.88;;;10.27;80.62
75359;BME280;64046;51.978;5.934;2023-01-19T12:58:27;100395.09;;;9.99;80.10
75359;BME280;64046;51.978;5.934;2023-01-19T13:01:15;100403.44;;;10.25;78.98
75359;BME280;64046;51.978;5.934;2023-01-19T13:04:04;100397.88;;;10.13;79.25
75359;BME280;64046;51.978;5.934;2023-01-19T13:07:05;100396.19;;;10.30;78.88
75359;BME280;64046;51.978;5.934;2023-01-19T13:09:36;100396.09;;;10.14;80.19
75359;BME280;64046;51.978;5.934;2023-01-19T13:12:25;100394.91;;;10.38;78.85
75359;BME280;64046;51.978;5.934;2023-01-19T13:15:26;100398.91;;;10.46;78.66
75359;BME280;64046;51.978;5.934;2023-01-19T13:17:59;100394.97;;;10.37;79.05
75359;BME280;64046;51.978;5.934;2023-01-19T13:20:35;100398.22;;;10.42;78.65
75359;BME280;64046;51.978;5.934;2023-01-19T13:23:23;100399.78;;;10.46;77.85
75359;BME280;64046;51.978;5.934;2023-01-19T13:26:03;100397.41;;;10.42;78.06
75359;BME280;64046;51.978;5.934;2023-01-19T13:28:39;100391.03;;;10.46;77.78
75359;BME280;64046;51.978;5.934;2023-01-19T13:31:10;100404.06;;;10.47;77.87
75359;BME280;64046;51.978;5.934;2023-01-19T13:33:51;100402.75;;;10.73;76.21
75359;BME280;64046;51.978;5.934;2023-01-19T13:36:24;100411.00;;;10.66;76.13